sensor_id;sensor_type;location;lat;lon;timestamp;temperature;humidity
5588;DHT22;2816;49.778;9.986;2023-06-19T00:00:43;23.10;72.30
5588;DHT22;2816;49.778;9.986;2023-06-19T00:03:10;23.10;72.20
5588;DHT22;2816;49.778;9.986;2023-06-19T00:05:37;23.10;72.40
5588;DHT22;2816;49.778;9.986;2023-06-19T00:08:04;23.00;72.60
5588;DHT22;2816;49.778;9.986;2023-06-19T00:10:33;23.00;73.00
5588;DHT22;2816;49.778;9.986;2023-06-19T00:13:00;22.90;73.00
5588;DHT22;2816;49.778;9.986;2023-06-19T00:15:27;22.90;73.50
5588;DHT22;2816;49.778;9.986;2023-06-19T00:17:55;22.90;73.50
5588;DHT22;2816;49.778;9.986;2023-06-19T00:20:23;22.90;73.70
5588;DHT22;2816;49.778;9.986;2023-06-19T00:22:50;22.90;74.50
5588;DHT22;2816;49.778;9.986;2023-06-19T00:25:17;22.90;74.30
5588;DHT22;2816;49.778;9.986;2023-06-19T00:27:46;22.80;75.00
5588;DHT22;2816;49.778;9.986;2023-06-19T00:30:13;22.80;75.00
5588;DHT22;2816;49.778;9.986;2023-06-19T00:32:40;22.80;75.60
5588;DHT22;2816;49.778;9.986;2023-06-19T00:35:13;22.80;75.30
5588;DHT22;2816;49.778;9.986;2023-06-19T00:37:40;22.70;75.40
5588;DHT22;2816;49.778;9.986;2023-06-19T00:40:15;22.70;75.50
5588;DHT22;2816;49.778;9.986;2023-06-19T00:42:43;22.70;75.90
5588;DHT22;2816;49.778;9.986;2023-06-19T00:45:11;22.70;75.60
5588;DHT22;2816;49.778;9.986;2023-06-19T00:47:38;22.70;75.50
5588;DHT22;2816;49.778;9.986;2023-06-19T00:50:06;22.60;75.70
5588;DHT22;2816;49.778;9.986;2023-06-19T00:52:34;22.60;75.60
5588;DHT22;2816;49.778;9.986;2023-06-19T00:55:01;22.60;75.70
5588;DHT22;2816;49.778;9.986;2023-06-19T00:57:29;22.60;76.00
5588;DHT22;2816;49.778;9.986;2023-06-19T00:59:57;22.60;75.90
5588;DHT22;2816;49.778;9.986;2023-06-19T01:02:26;22.50;76.40
5588;DHT22;2816;49.778;9.986;2023-06-19T01:04:54;22.50;75.70
5588;DHT22;2816;49.778;9.986;2023-06-19T01:07:26;22.40;74.80
5588;DHT22;2816;49.778;9.986;2023-06-19T01:09:59;22.40;75.60
5588;DHT22;2816;49.778;9.986;2023-06-19T01:12:30;22.30;75.70
5588;DHT22;2816;49.778;9.986;2023-06-19T01:15:02;22.20;75.90
5588;DHT22;2816;49.778;9.986;2023-06-19T01:17:32;22.20;76.40
5588;DHT22;2816;49.778;9.986;2023-06-19T01:19:59;22.20;76.80
5588;DHT22;2816;49.778;9.986;2023-06-19T01:22:33;22.10;76.50
5588;DHT22;2816;49.778;9.986;2023-06-19T01:25:00;22.10;77.10
5588;DHT22;2816;49.778;9.986;2023-06-19T01:27:27;22.00;78.00
5588;DHT22;2816;49.778;9.986;2023-06-19T01:29:57;22.00;77.80
5588;DHT22;2816;49.778;9.986;2023-06-19T01:32:29;21.90;78.20
5588;DHT22;2816;49.778;9.986;2023-06-19T01:34:58;21.80;78.40
5588;DHT22;2816;49.778;9.986;2023-06-19T01:37:26;21.80;78.20
5588;DHT22;2816;49.778;9.986;2023-06-19T01:39:56;21.80;78.60
5588;DHT22;2816;49.778;9.986;2023-06-19T01:42:24;21.80;78.70
5588;DHT22;2816;49.778;9.986;2023-06-19T01:44:53;21.70;79.40
5588;DHT22;2816;49.778;9.986;2023-06-19T01:47:20;21.70;79.10
5588;DHT22;2816;49.778;9.986;2023-06-19T01:49:47;21.60;79.50
5588;DHT22;2816;49.778;9.986;2023-06-19T01:52:14;21.60;79.40
5588;DHT22;2816;49.778;9.986;2023-06-19T01:54:41;21.60;78.30
5588;DHT22;2816;49.778;9.986;2023-06-19T01:57:10;21.60;78.70
5588;DHT22;2816;49.778;9.986;2023-06-19T01:59:37;21.50;78.60
5588;DHT22;2816;49.778;9.986;2023-06-19T02:02:04;21.50;79.40
5588;DHT22;2816;49.778;9.986;2023-06-19T02:04:32;21.40;80.70
5588;DHT22;2816;49.778;9.986;2023-06-19T02:06:59;21.40;80.10
5588;DHT22;2816;49.778;9.986;2023-06-19T02:09:26;21.40;81.50
5588;DHT22;2816;49.778;9.986;2023-06-19T02:11:53;21.30;81.90
5588;DHT22;2816;49.778;9.986;2023-06-19T02:14:21;21.20;83.00
5588;DHT22;2816;49.778;9.986;2023-06-19T02:16:48;21.10;83.30
5588;DHT22;2816;49.778;9.986;2023-06-19T02:19:15;21.10;83.10
5588;DHT22;2816;49.778;9.986;2023-06-19T02:21:42;20.90;83.80
5588;DHT22;2816;49.778;9.986;2023-06-19T02:24:09;20.90;83.80
5588;DHT22;2816;49.778;9.986;2023-06-19T02:26:36;20.80;83.70
5588;DHT22;2816;49.778;9.986;2023-06-19T02:29:03;20.80;83.50
5588;DHT22;2816;49.778;9.986;2023-06-19T02:31:31;20.70;83.50
5588;DHT22;2816;49.778;9.986;2023-06-19T02:33:58;20.70;82.80
5588;DHT22;2816;49.778;9.986;2023-06-19T02:36:25;20.60;82.70
5588;DHT22;2816;49.778;9.986;2023-06-19T02:38:52;20.60;83.20
5588;DHT22;2816;49.778;9.986;2023-06-19T02:41:19;20.50;83.40
5588;DHT22;2816;49.778;9.986;2023-06-19T02:43:46;20.50;83.90
5588;DHT22;2816;49.778;9.986;2023-06-19T02:46:13;20.50;84.30
5588;DHT22;2816;49.778;9.986;2023-06-19T02:48:41;20.30;85.40
5588;DHT22;2816;49.778;9.986;2023-06-19T02:51:08;20.30;85.40
5588;DHT22;2816;49.778;9.986;2023-06-19T02:53:35;20.40;85.60
5588;DHT22;2816;49.778;9.986;2023-06-19T02:56:02;20.50;85.60
5588;DHT22;2816;49.778;9.986;2023-06-19T02:58:29;20.60;85.10
5588;DHT22;2816;49.778;9.986;2023-06-19T03:00:57;20.70;85.10
5588;DHT22;2816;49.778;9.986;2023-06-19T03:03:24;20.70;85.60
5588;DHT22;2816;49.778;9.986;2023-06-19T03:05:52;20.70;85.50
5588;DHT22;2816;49.778;9.986;2023-06-19T03:08:19;20.70;85.70
5588;DHT22;2816;49.778;9.986;2023-06-19T03:10:46;20.60;87.10
5588;DHT22;2816;49.778;9.986;2023-06-19T03:13:13;20.60;87.90
5588;DHT22;2816;49.778;9.986;2023-06-19T03:15:40;20.60;87.40
5588;DHT22;2816;49.778;9.986;2023-06-19T03:18:07;20.60;87.90
5588;DHT22;2816;49.778;9.986;2023-06-19T03:20:36;20.60;88.50
5588;DHT22;2816;49.778;9.986;2023-06-19T03:23:04;20.60;87.70
5588;DHT22;2816;49.778;9.986;2023-06-19T03:25:31;20.60;87.70
5588;DHT22;2816;49.778;9.986;2023-06-19T03:28:00;20.60;87.60
5588;DHT22;2816;49.778;9.986;2023-06-19T03:30:28;20.60;88.50
5588;DHT22;2816;49.778;9.986;2023-06-19T03:32:55;20.60;87.70
5588;DHT22;2816;49.778;9.986;2023-06-19T03:35:22;20.60;89.50
5588;DHT22;2816;49.778;9.986;2023-06-19T03:37:49;20.60;88.80
5588;DHT22;2816;49.778;9.986;2023-06-19T03:40:17;20.60;88.50
5588;DHT22;2816;49.778;9.986;2023-06-19T03:42:44;20.70;89.80
5588;DHT22;2816;49.778;9.986;2023-06-19T03:45:11;20.70;88.80
5588;DHT22;2816;49.778;9.986;2023-06-19T03:47:38;20.70;89.00
5588;DHT22;2816;49.778;9.986;2023-06-19T03:50:06;20.70;90.30
5588;DHT22;2816;49.778;9.986;2023-06-19T03:52:35;20.80;89.90
5588;DHT22;2816;49.778;9.986;2023-06-19T03:55:02;20.80;90.00
5588;DHT22;2816;49.778;9.986;2023-06-19T03:57:31;20.80;90.20
5588;DHT22;2816;49.778;9.986;2023-06-19T03:59:58;20.80;90.30
5588;DHT22;2816;49.778;9.986;2023-06-19T04:02:24;20.80;90.50
5588;DHT22;2816;49.778;9.986;2023-06-19T04:04:52;20.80;91.00
5588;DHT22;2816;49.778;9.986;2023-06-19T04:07:19;20.80;91.00
5588;DHT22;2816;49.778;9.986;2023-06-19T04:09:46;20.80;91.20
5588;DHT22;2816;49.778;9.986;2023-06-19T04:12:13;20.80;91.20
5588;DHT22;2816;49.778;9.986;2023-06-19T04:14:41;20.90;91.40
5588;DHT22;2816;49.778;9.986;2023-06-19T04:17:08;20.90;93.10
5588;DHT22;2816;49.778;9.986;2023-06-19T04:19:35;20.90;91.70
5588;DHT22;2816;49.778;9.986;2023-06-19T04:22:02;20.90;91.90
5588;DHT22;2816;49.778;9.986;2023-06-19T04:24:28;20.90;92.60
5588;DHT22;2816;49.778;9.986;2023-06-19T04:26:55;20.90;92.30
5588;DHT22;2816;49.778;9.986;2023-06-19T04:29:22;20.90;92.70
5588;DHT22;2816;49.778;9.986;2023-06-19T04:31:51;21.00;92.50
5588;DHT22;2816;49.778;9.986;2023-06-19T04:34:18;21.00;92.70
5588;DHT22;2816;49.778;9.986;2023-06-19T04:36:46;21.00;92.60
5588;DHT22;2816;49.778;9.986;2023-06-19T04:39:13;21.00;93.70
5588;DHT22;2816;49.778;9.986;2023-06-19T04:41:40;21.00;92.90
5588;DHT22;2816;49.778;9.986;2023-06-19T04:44:09;21.00;93.20
5588;DHT22;2816;49.778;9.986;2023-06-19T04:46:37;21.00;94.40
5588;DHT22;2816;49.778;9.986;2023-06-19T04:49:05;21.00;93.40
5588;DHT22;2816;49.778;9.986;2023-06-19T04:51:32;21.00;93.60
5588;DHT22;2816;49.778;9.986;2023-06-19T04:53:59;21.00;94.80
5588;DHT22;2816;49.778;9.986;2023-06-19T04:56:26;21.10;94.00
5588;DHT22;2816;49.778;9.986;2023-06-19T04:58:54;21.10;93.90
5588;DHT22;2816;49.778;9.986;2023-06-19T05:01:25;21.10;94.00
5588;DHT22;2816;49.778;9.986;2023-06-19T05:03:54;21.10;94.20
5588;DHT22;2816;49.778;9.986;2023-06-19T05:06:23;21.10;94.30
5588;DHT22;2816;49.778;9.986;2023-06-19T05:08:50;21.10;94.20
5588;DHT22;2816;49.778;9.986;2023-06-19T05:11:18;21.20;94.50
5588;DHT22;2816;49.778;9.986;2023-06-19T05:13:45;21.20;94.20
5588;DHT22;2816;49.778;9.986;2023-06-19T05:16:12;21.30;94.30
5588;DHT22;2816;49.778;9.986;2023-06-19T05:18:41;21.30;94.60
5588;DHT22;2816;49.778;9.986;2023-06-19T05:21:08;21.30;94.80
5588;DHT22;2816;49.778;9.986;2023-06-19T05:23:37;21.30;95.20
5588;DHT22;2816;49.778;9.986;2023-06-19T05:26:05;21.30;94.70
5588;DHT22;2816;49.778;9.986;2023-06-19T05:28:31;21.30;95.80
5588;DHT22;2816;49.778;9.986;2023-06-19T05:30:58;21.30;95.20
5588;DHT22;2816;49.778;9.986;2023-06-19T05:33:25;21.40;96.30
5588;DHT22;2816;49.778;9.986;2023-06-19T05:35:53;21.40;96.00
5588;DHT22;2816;49.778;9.986;2023-06-19T05:38:20;21.40;95.90
5588;DHT22;2816;49.778;9.986;2023-06-19T05:40:50;21.40;96.00
5588;DHT22;2816;49.778;9.986;2023-06-19T05:43:17;21.40;95.90
5588;DHT22;2816;49.778;9.986;2023-06-19T05:45:45;21.50;95.70
5588;DHT22;2816;49.778;9.986;2023-06-19T05:48:12;21.50;96.10
5588;DHT22;2816;49.778;9.986;2023-06-19T05:50:39;21.50;96.90
5588;DHT22;2816;49.778;9.986;2023-06-19T05:53:06;21.50;97.90
5588;DHT22;2816;49.778;9.986;2023-06-19T05:55:33;21.40;97.40
5588;DHT22;2816;49.778;9.986;2023-06-19T05:58:01;21.50;97.60
5588;DHT22;2816;49.778;9.986;2023-06-19T06:00:29;21.50;97.50
5588;DHT22;2816;49.778;9.986;2023-06-19T06:02:57;21.50;97.90
5588;DHT22;2816;49.778;9.986;2023-06-19T06:05:25;21.50;99.00
5588;DHT22;2816;49.778;9.986;2023-06-19T06:07:52;21.50;98.50
5588;DHT22;2816;49.778;9.986;2023-06-19T06:10:20;21.60;98.10
5588;DHT22;2816;49.778;9.986;2023-06-19T06:12:48;21.60;98.40
5588;DHT22;2816;49.778;9.986;2023-06-19T06:15:16;21.70;98.30
5588;DHT22;2816;49.778;9.986;2023-06-19T06:17:43;21.70;99.40
5588;DHT22;2816;49.778;9.986;2023-06-19T06:20:10;21.70;99.70
5588;DHT22;2816;49.778;9.986;2023-06-19T06:22:38;21.70;98.50
5588;DHT22;2816;49.778;9.986;2023-06-19T06:25:05;21.90;99.60
5588;DHT22;2816;49.778;9.986;2023-06-19T06:27:32;21.90;99.50
5588;DHT22;2816;49.778;9.986;2023-06-19T06:29:59;22.00;98.50
5588;DHT22;2816;49.778;9.986;2023-06-19T06:32:28;22.00;99.60
5588;DHT22;2816;49.778;9.986;2023-06-19T06:34:56;22.10;99.00
5588;DHT22;2816;49.778;9.986;2023-06-19T06:37:24;22.20;98.50
5588;DHT22;2816;49.778;9.986;2023-06-19T06:39:51;22.20;99.90
5588;DHT22;2816;49.778;9.986;2023-06-19T06:42:18;22.30;98.40
5588;DHT22;2816;49.778;9.986;2023-06-19T06:44:45;22.40;98.50
5588;DHT22;2816;49.778;9.986;2023-06-19T06:47:12;22.50;99.90
5588;DHT22;2816;49.778;9.986;2023-06-19T06:49:41;22.50;99.90
5588;DHT22;2816;49.778;9.986;2023-06-19T06:52:08;22.50;99.20
5588;DHT22;2816;49.778;9.986;2023-06-19T06:54:35;22.60;99.20
5588;DHT22;2816;49.778;9.986;2023-06-19T06:57:02;22.60;99.20
5588;DHT22;2816;49.778;9.986;2023-06-19T06:59:30;22.70;99.40
5588;DHT22;2816;49.778;9.986;2023-06-19T07:01:57;22.80;99.40
5588;DHT22;2816;49.778;9.986;2023-06-19T07:04:24;22.80;99.90
5588;DHT22;2816;49.778;9.986;2023-06-19T07:06:52;22.90;99.50
5588;DHT22;2816;49.778;9.986;2023-06-19T07:09:20;22.90;98.70
5588;DHT22;2816;49.778;9.986;2023-06-19T07:11:47;22.90;98.90
5588;DHT22;2816;49.778;9.986;2023-06-19T07:14:14;23.10;98.70
5588;DHT22;2816;49.778;9.986;2023-06-19T07:16:43;23.10;97.50
5588;DHT22;2816;49.778;9.986;2023-06-19T07:19:10;23.20;98.80
5588;DHT22;2816;49.778;9.986;2023-06-19T07:21:38;23.30;98.00
5588;DHT22;2816;49.778;9.986;2023-06-19T07:24:07;23.40;97.80
5588;DHT22;2816;49.778;9.986;2023-06-19T07:26:34;23.40;98.00
5588;DHT22;2816;49.778;9.986;2023-06-19T07:29:01;23.50;97.60
5588;DHT22;2816;49.778;9.986;2023-06-19T07:31:28;23.50;98.30
5588;DHT22;2816;49.778;9.986;2023-06-19T07:33:55;23.50;97.90
5588;DHT22;2816;49.778;9.986;2023-06-19T07:36:22;23.60;98.80
5588;DHT22;2816;49.778;9.986;2023-06-19T07:38:49;23.70;98.50
5588;DHT22;2816;49.778;9.986;2023-06-19T07:41:17;23.70;98.00
5588;DHT22;2816;49.778;9.986;2023-06-19T07:43:44;23.80;97.80
5588;DHT22;2816;49.778;9.986;2023-06-19T07:46:11;23.80;98.00
5588;DHT22;2816;49.778;9.986;2023-06-19T07:48:38;23.80;98.20
5588;DHT22;2816;49.778;9.986;2023-06-19T07:51:04;23.70;97.30
5588;DHT22;2816;49.778;9.986;2023-06-19T07:53:31;23.70;98.80
5588;DHT22;2816;49.778;9.986;2023-06-19T07:55:58;23.80;99.00
5588;DHT22;2816;49.778;9.986;2023-06-19T07:58:26;23.80;98.10
5588;DHT22;2816;49.778;9.986;2023-06-19T08:00:53;23.80;98.80
5588;DHT22;2816;49.778;9.986;2023-06-19T08:03:20;23.90;98.20
5588;DHT22;2816;49.778;9.986;2023-06-19T08:05:49;24.00;98.50
5588;DHT22;2816;49.778;9.986;2023-06-19T08:08:16;23.90;98.20
5588;DHT22;2816;49.778;9.986;2023-06-19T08:10:43;24.00;98.90
5588;DHT22;2816;49.778;9.986;2023-06-19T08:13:10;24.00;98.40
5588;DHT22;2816;49.778;9.986;2023-06-19T08:15:39;24.00;99.10
5588;DHT22;2816;49.778;9.986;2023-06-19T08:18:06;24.10;98.50
5588;DHT22;2816;49.778;9.986;2023-06-19T08:20:33;24.10;99.20
5588;DHT22;2816;49.778;9.986;2023-06-19T08:23:00;24.10;99.40
5588;DHT22;2816;49.778;9.986;2023-06-19T08:25:26;24.10;98.70
5588;DHT22;2816;49.778;9.986;2023-06-19T08:27:53;24.00;98.50
5588;DHT22;2816;49.778;9.986;2023-06-19T08:30:20;24.10;99.00
5588;DHT22;2816;49.778;9.986;2023-06-19T08:32:49;24.20;98.80
5588;DHT22;2816;49.778;9.986;2023-06-19T08:35:16;24.30;98.20
5588;DHT22;2816;49.778;9.986;2023-06-19T08:37:43;24.40;98.50
5588;DHT22;2816;49.778;9.986;2023-06-19T08:40:12;24.40;98.30
5588;DHT22;2816;49.778;9.986;2023-06-19T08:42:39;24.40;99.20
5588;DHT22;2816;49.778;9.986;2023-06-19T08:45:08;24.50;99.00
5588;DHT22;2816;49.778;9.986;2023-06-19T08:47:35;24.50;98.20
5588;DHT22;2816;49.778;9.986;2023-06-19T08:50:04;24.60;99.50
5588;DHT22;2816;49.778;9.986;2023-06-19T08:52:31;24.70;98.50
5588;DHT22;2816;49.778;9.986;2023-06-19T08:54:58;24.70;99.40
5588;DHT22;2816;49.778;9.986;2023-06-19T08:57:37;24.80;99.20
5588;DHT22;2816;49.778;9.986;2023-06-19T09:00:05;24.80;99.10
5588;DHT22;2816;49.778;9.986;2023-06-19T09:02:44;24.90;99.10
5588;DHT22;2816;49.778;9.986;2023-06-19T09:05:14;25.00;98.50
5588;DHT22;2816;49.778;9.986;2023-06-19T09:07:42;25.10;98.80
5588;DHT22;2816;49.778;9.986;2023-06-19T09:10:15;25.10;98.60
5588;DHT22;2816;49.778;9.986;2023-06-19T09:12:42;25.30;98.50
5588;DHT22;2816;49.778;9.986;2023-06-19T09:15:14;25.50;98.20
5588;DHT22;2816;49.778;9.986;2023-06-19T09:17:41;25.70;97.50
5588;DHT22;2816;49.778;9.986;2023-06-19T09:20:09;25.70;97.10
5588;DHT22;2816;49.778;9.986;2023-06-19T09:22:38;25.70;97.50
5588;DHT22;2816;49.778;9.986;2023-06-19T09:25:07;25.90;97.40
5588;DHT22;2816;49.778;9.986;2023-06-19T09:27:36;25.90;97.20
5588;DHT22;2816;49.778;9.986;2023-06-19T09:30:05;25.80;97.50
5588;DHT22;2816;49.778;9.986;2023-06-19T09:32:34;26.10;97.30
5588;DHT22;2816;49.778;9.986;2023-06-19T09:35:01;26.10;97.20
5588;DHT22;2816;49.778;9.986;2023-06-19T09:37:29;26.20;97.00
5588;DHT22;2816;49.778;9.986;2023-06-19T09:39:59;26.20;97.40
5588;DHT22;2816;49.778;9.986;2023-06-19T09:42:29;26.20;97.40
5588;DHT22;2816;49.778;9.986;2023-06-19T09:45:00;26.00;97.30
5588;DHT22;2816;49.778;9.986;2023-06-19T09:47:30;26.00;97.60
5588;DHT22;2816;49.778;9.986;2023-06-19T09:49:57;26.10;97.30
5588;DHT22;2816;49.778;9.986;2023-06-19T09:52:25;26.20;97.30
5588;DHT22;2816;49.778;9.986;2023-06-19T09:54:54;26.20;97.50
5588;DHT22;2816;49.778;9.986;2023-06-19T09:57:22;26.10;98.10
5588;DHT22;2816;49.778;9.986;2023-06-19T09:59:53;26.20;97.60
5588;DHT22;2816;49.778;9.986;2023-06-19T10:02:22;26.30;97.80
5588;DHT22;2816;49.778;9.986;2023-06-19T10:04:52;26.50;97.50
5588;DHT22;2816;49.778;9.986;2023-06-19T10:07:21;26.60;96.90
5588;DHT22;2816;49.778;9.986;2023-06-19T10:09:59;26.60;96.90
5588;DHT22;2816;49.778;9.986;2023-06-19T10:12:41;26.60;96.90
5588;DHT22;2816;49.778;9.986;2023-06-19T10:15:10;26.60;97.00
5588;DHT22;2816;49.778;9.986;2023-06-19T10:17:37;26.60;97.20
5588;DHT22;2816;49.778;9.986;2023-06-19T10:20:05;26.60;96.90
5588;DHT22;2816;49.778;9.986;2023-06-19T10:22:49;26.60;96.70
5588;DHT22;2816;49.778;9.986;2023-06-19T10:25:20;26.50;97.20
5588;DHT22;2816;49.778;9.986;2023-06-19T10:27:49;26.40;97.50
5588;DHT22;2816;49.778;9.986;2023-06-19T10:30:18;26.60;97.60
5588;DHT22;2816;49.778;9.986;2023-06-19T10:32:46;26.60;97.80
5588;DHT22;2816;49.778;9.986;2023-06-19T10:35:16;26.70;97.90
5588;DHT22;2816;49.778;9.986;2023-06-19T10:37:43;27.10;97.00
5588;DHT22;2816;49.778;9.986;2023-06-19T10:40:11;27.40;96.60
5588;DHT22;2816;49.778;9.986;2023-06-19T10:42:38;27.50;96.30
5588;DHT22;2816;49.778;9.986;2023-06-19T10:45:09;27.70;96.60
5588;DHT22;2816;49.778;9.986;2023-06-19T10:47:38;28.00;95.80
5588;DHT22;2816;49.778;9.986;2023-06-19T10:50:09;27.90;95.90
5588;DHT22;2816;49.778;9.986;2023-06-19T10:52:38;27.80;95.70
5588;DHT22;2816;49.778;9.986;2023-06-19T10:55:06;27.70;95.50
5588;DHT22;2816;49.778;9.986;2023-06-19T10:57:33;27.80;95.50
5588;DHT22;2816;49.778;9.986;2023-06-19T11:00:00;27.80;95.80
5588;DHT22;2816;49.778;9.986;2023-06-19T11:02:32;27.80;95.50
5588;DHT22;2816;49.778;9.986;2023-06-19T11:04:59;28.00;95.10
5588;DHT22;2816;49.778;9.986;2023-06-19T11:07:27;27.90;95.40
5588;DHT22;2816;49.778;9.986;2023-06-19T11:09:54;27.80;95.60
5588;DHT22;2816;49.778;9.986;2023-06-19T11:12:21;27.60;95.80
5588;DHT22;2816;49.778;9.986;2023-06-19T11:14:48;27.50;95.90
5588;DHT22;2816;49.778;9.986;2023-06-19T11:17:16;27.60;95.90
5588;DHT22;2816;49.778;9.986;2023-06-19T11:19:45;27.90;95.90
5588;DHT22;2816;49.778;9.986;2023-06-19T11:22:12;27.90;95.50
5588;DHT22;2816;49.778;9.986;2023-06-19T11:24:43;28.20;94.70
5588;DHT22;2816;49.778;9.986;2023-06-19T11:27:17;28.60;94.50
5588;DHT22;2816;49.778;9.986;2023-06-19T11:29:44;28.50;94.70
5588;DHT22;2816;49.778;9.986;2023-06-19T11:32:13;28.80;94.10
5588;DHT22;2816;49.778;9.986;2023-06-19T11:34:41;28.80;93.50
5588;DHT22;2816;49.778;9.986;2023-06-19T11:37:14;28.50;94.00
5588;DHT22;2816;49.778;9.986;2023-06-19T11:39:43;28.40;94.20
5588;DHT22;2816;49.778;9.986;2023-06-19T11:42:10;28.40;94.00
5588;DHT22;2816;49.778;9.986;2023-06-19T11:44:52;28.80;94.00
5588;DHT22;2816;49.778;9.986;2023-06-19T11:47:20;28.80;94.00
5588;DHT22;2816;49.778;9.986;2023-06-19T11:49:48;28.80;93.60
5588;DHT22;2816;49.778;9.986;2023-06-19T11:52:16;28.80;93.60
5588;DHT22;2816;49.778;9.986;2023-06-19T11:54:43;28.90;93.70
5588;DHT22;2816;49.778;9.986;2023-06-19T11:57:10;29.10;93.40
5588;DHT22;2816;49.778;9.986;2023-06-19T11:59:38;29.00;93.20
5588;DHT22;2816;49.778;9.986;2023-06-19T12:02:06;29.00;93.40
5588;DHT22;2816;49.778;9.986;2023-06-19T12:04:33;28.70;93.50
5588;DHT22;2816;49.778;9.986;2023-06-19T12:07:00;28.90;93.50
5588;DHT22;2816;49.778;9.986;2023-06-19T12:09:28;29.10;92.80
5588;DHT22;2816;49.778;9.986;2023-06-19T12:11:55;29.20;93.10
5588;DHT22;2816;49.778;9.986;2023-06-19T12:14:22;29.60;92.40
5588;DHT22;2816;49.778;9.986;2023-06-19T12:16:50;29.20;92.50
5588;DHT22;2816;49.778;9.986;2023-06-19T12:19:17;29.10;92.70
5588;DHT22;2816;49.778;9.986;2023-06-19T12:21:44;29.00;92.80
5588;DHT22;2816;49.778;9.986;2023-06-19T12:24:11;29.20;92.50
5588;DHT22;2816;49.778;9.986;2023-06-19T12:26:39;29.40;92.00
5588;DHT22;2816;49.778;9.986;2023-06-19T12:29:06;29.70;92.20
5588;DHT22;2816;49.778;9.986;2023-06-19T12:31:34;29.90;91.90
5588;DHT22;2816;49.778;9.986;2023-06-19T12:34:01;29.70;92.20
5588;DHT22;2816;49.778;9.986;2023-06-19T12:36:28;29.70;92.10
5588;DHT22;2816;49.778;9.986;2023-06-19T12:38:58;29.80;91.70
5588;DHT22;2816;49.778;9.986;2023-06-19T12:41:25;29.80;91.80
5588;DHT22;2816;49.778;9.986;2023-06-19T12:43:54;30.00;91.50
5588;DHT22;2816;49.778;9.986;2023-06-19T12:46:21;30.20;91.20
5588;DHT22;2816;49.778;9.986;2023-06-19T12:48:48;30.50;90.60
5588;DHT22;2816;49.778;9.986;2023-06-19T12:51:16;30.90;90.00
5588;DHT22;2816;49.778;9.986;2023-06-19T12:53:44;31.00;90.00
5588;DHT22;2816;49.778;9.986;2023-06-19T12:56:11;30.70;90.20
5588;DHT22;2816;49.778;9.986;2023-06-19T12:58:38;30.90;90.10
5588;DHT22;2816;49.778;9.986;2023-06-19T13:01:06;30.70;89.80
5588;DHT22;2816;49.778;9.986;2023-06-19T13:03:33;30.50;89.40
5588;DHT22;2816;49.778;9.986;2023-06-19T13:06:00;30.50;90.20
5588;DHT22;2816;49.778;9.986;2023-06-19T13:08:27;30.70;90.00
5588;DHT22;2816;49.778;9.986;2023-06-19T13:10:54;30.40;90.10
5588;DHT22;2816;49.778;9.986;2023-06-19T13:13:21;30.70;89.70
5588;DHT22;2816;49.778;9.986;2023-06-19T13:15:48;30.80;90.00
5588;DHT22;2816;49.778;9.986;2023-06-19T13:18:17;30.70;89.80
5588;DHT22;2816;49.778;9.986;2023-06-19T13:20:45;30.40;90.10
5588;DHT22;2816;49.778;9.986;2023-06-19T13:23:13;30.50;90.10
5588;DHT22;2816;49.778;9.986;2023-06-19T13:25:40;30.50;90.00
5588;DHT22;2816;49.778;9.986;2023-06-19T13:28:07;30.30;90.00
5588;DHT22;2816;49.778;9.986;2023-06-19T13:30:34;30.10;90.30
5588;DHT22;2816;49.778;9.986;2023-06-19T13:33:01;29.90;90.20
5588;DHT22;2816;49.778;9.986;2023-06-19T13:35:29;30.00;90.10
5588;DHT22;2816;49.778;9.986;2023-06-19T13:37:57;29.90;90.20
5588;DHT22;2816;49.778;9.986;2023-06-19T13:40:25;29.90;90.40
5588;DHT22;2816;49.778;9.986;2023-06-19T13:42:52;29.70;90.20
5588;DHT22;2816;49.778;9.986;2023-06-19T13:45:20;29.90;90.00
5588;DHT22;2816;49.778;9.986;2023-06-19T13:47:47;29.80;90.60
5588;DHT22;2816;49.778;9.986;2023-06-19T13:50:14;29.60;90.40
5588;DHT22;2816;49.778;9.986;2023-06-19T13:52:45;29.50;89.80
5588;DHT22;2816;49.778;9.986;2023-06-19T13:55:13;29.50;90.40
5588;DHT22;2816;49.778;9.986;2023-06-19T13:57:41;29.50;90.60
5588;DHT22;2816;49.778;9.986;2023-06-19T14:00:10;29.60;90.60
5588;DHT22;2816;49.778;9.986;2023-06-19T14:02:37;29.50;90.60
5588;DHT22;2816;49.778;9.986;2023-06-19T14:05:05;29.40;90.80
5588;DHT22;2816;49.778;9.986;2023-06-19T14:07:32;29.50;90.70
5588;DHT22;2816;49.778;9.986;2023-06-19T14:10:03;29.40;90.80
5588;DHT22;2816;49.778;9.986;2023-06-19T14:12:30;29.60;90.60
5588;DHT22;2816;49.778;9.986;2023-06-19T14:14:57;29.50;90.30
5588;DHT22;2816;49.778;9.986;2023-06-19T14:17:24;29.60;90.50
5588;DHT22;2816;49.778;9.986;2023-06-19T14:19:51;29.50;90.50
5588;DHT22;2816;49.778;9.986;2023-06-19T14:22:18;29.70;90.30
5588;DHT22;2816;49.778;9.986;2023-06-19T14:24:45;29.70;90.20
5588;DHT22;2816;49.778;9.986;2023-06-19T14:27:13;29.60;90.50
5588;DHT22;2816;49.778;9.986;2023-06-19T14:29:40;29.50;90.40
5588;DHT22;2816;49.778;9.986;2023-06-19T14:32:07;29.50;90.50
5588;DHT22;2816;49.778;9.986;2023-06-19T14:34:34;29.50;90.60
5588;DHT22;2816;49.778;9.986;2023-06-19T14:37:01;29.60;90.20
5588;DHT22;2816;49.778;9.986;2023-06-19T14:39:28;29.70;90.80
5588;DHT22;2816;49.778;9.986;2023-06-19T14:41:55;29.90;90.40
5588;DHT22;2816;49.778;9.986;2023-06-19T14:44:23;29.60;90.50
5588;DHT22;2816;49.778;9.986;2023-06-19T14:46:50;29.50;91.20
5588;DHT22;2816;49.778;9.986;2023-06-19T14:49:17;29.80;90.70
5588;DHT22;2816;49.778;9.986;2023-06-19T14:51:44;29.80;90.40
5588;DHT22;2816;49.778;9.986;2023-06-19T14:54:11;29.70;90.00
5588;DHT22;2816;49.778;9.986;2023-06-19T14:56:38;29.70;90.00
5588;DHT22;2816;49.778;9.986;2023-06-19T14:59:05;29.70;90.10
5588;DHT22;2816;49.778;9.986;2023-06-19T15:01:33;29.60;90.20
5588;DHT22;2816;49.778;9.986;2023-06-19T15:04:00;29.80;89.30
5588;DHT22;2816;49.778;9.986;2023-06-19T15:06:27;30.00;89.60
5588;DHT22;2816;49.778;9.986;2023-06-19T15:08:54;30.10;89.10
5588;DHT22;2816;49.778;9.986;2023-06-19T15:11:21;30.00;89.00
5588;DHT22;2816;49.778;9.986;2023-06-19T15:13:48;30.00;89.30
5588;DHT22;2816;49.778;9.986;2023-06-19T15:16:15;29.90;89.30
5588;DHT22;2816;49.778;9.986;2023-06-19T15:18:45;30.20;88.90
5588;DHT22;2816;49.778;9.986;2023-06-19T15:21:11;30.10;88.90
5588;DHT22;2816;49.778;9.986;2023-06-19T15:23:38;30.30;88.40
5588;DHT22;2816;49.778;9.986;2023-06-19T15:26:05;30.40;88.50
5588;DHT22;2816;49.778;9.986;2023-06-19T15:28:32;30.00;89.60
5588;DHT22;2816;49.778;9.986;2023-06-19T15:31:00;30.20;88.90
5588;DHT22;2816;49.778;9.986;2023-06-19T15:33:27;30.40;88.80
5588;DHT22;2816;49.778;9.986;2023-06-19T15:35:55;30.50;88.20
5588;DHT22;2816;49.778;9.986;2023-06-19T15:38:22;30.80;87.40
5588;DHT22;2816;49.778;9.986;2023-06-19T15:40:49;30.70;87.00
5588;DHT22;2816;49.778;9.986;2023-06-19T15:43:16;30.80;87.20
5588;DHT22;2816;49.778;9.986;2023-06-19T15:45:43;30.70;87.40
5588;DHT22;2816;49.778;9.986;2023-06-19T15:48:10;31.00;86.30
5588;DHT22;2816;49.778;9.986;2023-06-19T15:50:36;30.90;86.90
5588;DHT22;2816;49.778;9.986;2023-06-19T15:53:05;30.70;88.30
5588;DHT22;2816;49.778;9.986;2023-06-19T15:55:33;30.80;87.60
5588;DHT22;2816;49.778;9.986;2023-06-19T15:58:00;30.80;87.50
5588;DHT22;2816;49.778;9.986;2023-06-19T16:00:27;30.50;86.80
5588;DHT22;2816;49.778;9.986;2023-06-19T16:02:54;30.60;87.70
5588;DHT22;2816;49.778;9.986;2023-06-19T16:05:21;30.80;87.00